Time;durP1;ratioP1;P1;durP2;ratioP2;P2;SDS_P1;SDS_P2;PMS_P1;PMS_P2;Temp;Humidity;BMP_temperature;BMP_pressure;BME280_temperature;BME280_humidity;BME280_pressure;Samples;Min_cycle;Max_cycle;Signal;HPM_P1;HPM_P2
2024/02/15 00:00:10;;;;;;;1.92;0.82;;;;;;;8.20;100.00;96537.63;1033438;28;20057;-67
2024/02/15 00:00:43;;;;;;;0.20;0.20;;;;;;;8.19;100.00;96537.88;1023192;28;20031;-67
2024/02/15 00:01:14;;;;;;;0.05;0.05;;;;;;;8.19;100.00;96541.25;1030181;28;20056;-67
2024/02/15 00:01:44;;;;;;;0.10;0.10;;;;;;;8.21;100.00;96544.44;1030985;28;20058;-67
2024/02/15 00:02:15;;;;;;;0.10;0.10;;;;;;;8.20;100.00;96540.22;1026149;28;20049;-67
2024/02/15 00:02:46;;;;;;;0.75;0.52;;;;;;;8.18;100.00;96539.69;1027122;28;20027;-67
2024/02/15 00:03:16;;;;;;;0.00;0.00;;;;;;;8.20;100.00;96539.44;1027085;28;20564;-67
2024/02/15 00:03:48;;;;;;;0.77;0.38;;;;;;;8.19;100.00;96538.66;1026392;28;20054;-67
2024/02/15 00:04:20;;;;;;;1.15;0.40;;;;;;;8.24;100.00;96537.97;1034215;28;20089;-67
2024/02/15 00:04:50;;;;;;;0.30;0.30;;;;;;;8.22;100.00;96543.44;1022696;28;20023;-67
2024/02/15 00:05:21;;;;;;;0.30;0.20;;;;;;;8.19;100.00;96538.66;1022981;28;20027;-67
2024/02/15 00:05:52;;;;;;;1.20;0.80;;;;;;;8.18;100.00;96542.28;1030679;28;20026;-67
2024/02/15 00:06:23;;;;;;;0.00;0.00;;;;;;;8.18;100.00;96539.69;1019098;29;20020;-67
2024/02/15 00:06:53;;;;;;;0.40;0.30;;;;;;;8.15;100.00;96534.09;1030630;28;20449;-67
2024/02/15 00:07:24;;;;;;;0.30;0.30;;;;;;;8.17;100.00;96534.66;1026857;28;20508;-67
2024/02/15 00:07:55;;;;;;;0.65;0.65;;;;;;;8.16;100.00;96538.31;1034934;28;20057;-70
2024/02/15 00:08:26;;;;;;;0.05;0.05;;;;;;;8.17;100.00;96534.66;1026625;28;20323;-67
2024/02/15 00:08:57;;;;;;;0.25;0.25;;;;;;;8.16;100.00;96540.94;1030178;28;20022;-67
2024/02/15 00:09:27;;;;;;;0.00;0.00;;;;;;;8.12;100.00;96537.19;1023093;29;20570;-67
2024/02/15 00:09:58;;;;;;;0.20;0.10;;;;;;;8.13;100.00;96539.56;1030009;28;20057;-68
2024/02/15 00:10:29;;;;;;;0.17;0.17;;;;;;;8.15;100.00;96537.53;1026834;28;20478;-67
2024/02/15 00:11:00;;;;;;;0.00;0.00;;;;;;;8.15;100.00;96541.94;1030742;28;20149;-67
2024/02/15 00:11:31;;;;;;;0.75;0.75;;;;;;;8.13;100.00;96538.75;1034891;28;20563;-67
2024/02/15 00:12:02;;;;;;;1.63;0.28;;;;;;;8.08;100.00;96526.38;1030718;28;20611;-67
2024/02/15 00:12:32;;;;;;;0.20;0.20;;;;;;;8.11;100.00;96531.13;1030576;28;20026;-67
2024/02/15 00:13:06;;;;;;;0.75;0.45;;;;;;;8.08;100.00;96542.06;1028286;28;20126;-67
2024/02/15 00:13:36;;;;;;;0.43;0.43;;;;;;;8.04;100.00;96552.16;1032198;28;20026;-67
2024/02/15 00:14:08;;;;;;;2.17;0.50;;;;;;;8.02;100.00;96542.97;1024811;28;20038;-67
2024/02/15 00:14:38;;;;;;;0.20;0.20;;;;;;;7.99;100.00;96544.22;1030872;28;20034;-67
2024/02/15 00:15:10;;;;;;;0.47;0.47;;;;;;;7.99;100.00;96548.66;1028951;28;20501;-68
2024/02/15 00:15:41;;;;;;;0.40;0.40;;;;;;;7.95;100.00;96545.69;1025854;28;20517;-67
2024/02/15 00:16:14;;;;;;;1.00;0.82;;;;;;;7.92;100.00;96547.97;1026900;28;20027;-67
2024/02/15 00:16:45;;;;;;;0.22;0.22;;;;;;;7.92;100.00;96548.75;1026707;28;20293;-67
2024/02/15 00:17:16;;;;;;;0.00;0.00;;;;;;;7.93;100.00;96544.31;1027535;28;20479;-67
2024/02/15 00:17:46;;;;;;;0.00;0.00;;;;;;;7.91;100.00;96551.56;1022745;29;20027;-67
2024/02/15 00:18:17;;;;;;;0.47;0.22;;;;;;;7.88;100.00;96547.63;1026670;28;20113;-67
2024/02/15 00:18:48;;;;;;;0.10;0.10;;;;;;;7.86;100.00;96544.41;1022331;28;20523;-67
2024/02/15 00:19:19;;;;;;;0.10;0.10;;;;;;;7.84;100.00;96545.66;1026829;28;20030;-67
2024/02/15 00:19:49;;;;;;;0.43;0.35;;;;;;;7.83;100.00;96544.88;1030230;28;20026;-67
2024/02/15 00:20:20;;;;;;;0.63;0.43;;;;;;;7.80;100.00;96546.09;1030580;28;20031;-67
2024/02/15 00:20:54;;;;;;;0.63;0.47;;;;;;;7.79;100.00;96546.34;1030552;28;20018;-67
2024/02/15 00:21:24;;;;;;;0.70;0.70;;;;;;;7.75;100.00;96548.59;1026967;28;20441;-67
2024/02/15 00:21:55;;;;;;;0.30;0.30;;;;;;;7.73;100.00;96542.78;1030578;28;20533;-67
2024/02/15 00:22:25;;;;;;;0.30;0.30;;;;;;;7.68;100.00;96540.06;1025218;28;20688;-67
2024/02/15 00:22:56;;;;;;;0.30;0.30;;;;;;;7.72;100.00;96546.44;1026084;28;20483;-67
2024/02/15 00:23:27;;;;;;;0.43;0.43;;;;;;;7.69;100.00;96549.50;1026768;28;20023;-67
2024/02/15 00:23:59;;;;;;;0.05;0.03;;;;;;;7.67;100.00;96548.91;1026557;28;20134;-67
2024/02/15 00:24:30;;;;;;;0.13;0.10;;;;;;;7.71;100.00;96557.09;1026979;28;20023;-67
2024/02/15 00:25:01;;;;;;;0.80;0.55;;;;;;;7.68;100.00;96553.13;1026408;28;20074;-68
2024/02/15 00:25:35;;;;;;;0.90;0.40;;;;;;;7.67;100.00;96559.34;1029669;28;20278;-67
2024/02/15 00:26:06;;;;;;;0.32;0.32;;;;;;;7.68;100.00;96554.94;1026476;28;20031;-66
2024/02/15 00:26:36;;;;;;;0.75;0.57;;;;;;;7.62;100.00;96559.25;1025500;28;20109;-68
2024/02/15 00:27:07;;;;;;;0.65;0.63;;;;;;;7.61;100.00;96554.22;1030003;28;20080;-67
2024/02/15 00:27:37;;;;;;;0.10;0.10;;;;;;;7.61;100.00;96556.84;1026523;28;20483;-67
2024/02/15 00:28:08;;;;;;;2.67;0.30;;;;;;;7.60;100.00;96550.03;1026580;28;20125;-66
2024/02/15 00:28:41;;;;;;;0.47;0.32;;;;;;;7.53;100.00;96556.16;1023240;28;20057;-67
2024/02/15 00:29:11;;;;;;;0.47;0.47;;;;;;;7.52;100.00;96549.34;1026248;28;21517;-66
2024/02/15 00:29:42;;;;;;;3.92;0.32;;;;;;;7.50;100.00;96556.59;1021837;29;20090;-67
2024/02/15 00:30:13;;;;;;;0.03;0.03;;;;;;;7.47;100.00;96557.03;1028415;28;20034;-67
2024/02/15 00:30:44;;;;;;;0.45;0.45;;;;;;;7.43;100.00;96555.09;1030158;28;20050;-67
2024/02/15 00:31:14;;;;;;;0.63;0.20;;;;;;;7.42;100.00;96553.50;1034535;28;20402;-67
2024/02/15 00:31:45;;;;;;;10.55;1.50;;;;;;;7.40;100.00;96555.53;1030979;28;20030;-65
2024/02/15 00:32:16;;;;;;;0.45;0.22;;;;;;;7.37;100.00;96558.59;1022941;28;20059;-67
2024/02/15 00:32:46;;;;;;;0.32;0.32;;;;;;;7.17;100.00;96525.69;1026493;28;20163;-66
2024/02/15 00:33:20;;;;;;;0.38;0.25;;;;;;;7.30;100.00;96562.06;1029044;28;20129;-67
2024/02/15 00:33:50;;;;;;;0.50;0.50;;;;;;;7.24;100.00;96547.31;1026987;28;20058;-67
2024/02/15 00:34:21;;;;;;;2.28;1.40;;;;;;;7.27;100.00;96559.91;1026429;28;20106;-67
2024/02/15 00:34:51;;;;;;;1.02;0.93;;;;;;;7.20;100.00;96551.38;1022588;29;20130;-67
2024/02/15 00:35:22;;;;;;;0.00;0.00;;;;;;;7.24;100.00;96557.75;1022721;29;20109;-67
2024/02/15 00:35:52;;;;;;;1.15;0.88;;;;;;;7.20;100.00;96559.19;1026359;28;20058;-66
2024/02/15 00:36:23;;;;;;;0.40;0.38;;;;;;;7.23;100.00;96560.56;1030750;28;20046;-67
2024/02/15 00:36:53;;;;;;;0.15;0.15;;;;;;;7.21;100.00;96563.41;1030353;28;20180;-67
2024/02/15 00:37:24;;;;;;;0.20;0.20;;;;;;;7.18;100.00;96569.06;1022797;29;20407;-67
2024/02/15 00:37:54;;;;;;;0.20;0.17;;;;;;;7.17;100.00;96564.06;1026507;28;20113;-67
2024/02/15 00:38:25;;;;;;;0.80;0.47;;;;;;;7.13;100.00;96566.31;1030342;28;20034;-66
2024/02/15 00:38:56;;;;;;;0.13;0.13;;;;;;;7.16;100.00;96563.28;1026709;28;20105;-67
2024/02/15 00:39:26;;;;;;;0.45;0.45;;;;;;;7.04;100.00;96544.13;1026668;28;20053;-66
2024/02/15 00:39:57;;;;;;;0.20;0.20;;;;;;;7.12;100.00;96564.72;1025853;28;20030;-68
2024/02/15 00:40:27;;;;;;;0.43;0.40;;;;;;;7.11;100.00;96567.53;1022804;29;20118;-67
2024/02/15 00:41:01;;;;;;;1.02;0.43;;;;;;;7.07;100.00;96567.19;1019304;29;20030;-67
2024/02/15 00:41:33;;;;;;;0.17;0.17;;;;;;;7.03;100.00;96566.03;1026467;28;20038;-67
2024/02/15 00:42:05;;;;;;;0.28;0.28;;;;;;;7.00;100.00;96571.69;1022767;29;20054;-67
2024/02/15 00:42:36;;;;;;;0.20;0.20;;;;;;;6.98;100.00;96563.31;1026487;28;20470;-67
2024/02/15 00:43:06;;;;;;;0.10;0.10;;;;;;;7.01;100.00;96570.69;1033007;28;20093;-66
2024/02/15 00:43:37;;;;;;;0.20;0.20;;;;;;;7.02;100.00;96574.91;1026585;28;20069;-67
2024/02/15 00:44:10;;;;;;;2.70;0.20;;;;;;;6.98;100.00;96574.53;1024764;28;20504;-67
2024/02/15 00:44:41;;;;;;;0.35;0.35;;;;;;;6.95;100.00;96571.56;1026485;28;20034;-68
2024/02/15 00:45:12;;;;;;;3.40;0.30;;;;;;;6.93;100.00;96573.59;1020890;29;20032;-67
2024/02/15 00:45:43;;;;;;;0.05;0.03;;;;;;;6.96;100.00;96576.56;1026674;28;20334;-67
2024/02/15 00:46:14;;;;;;;0.50;0.50;;;;;;;6.95;100.00;96579.41;1025434;28;20552;-67
2024/02/15 00:46:44;;;;;;;0.75;0.10;;;;;;;6.98;100.00;96579.75;1029305;28;20279;-67
2024/02/15 00:47:15;;;;;;;0.20;0.17;;;;;;;6.96;100.00;96581.78;1029735;28;20050;-67
2024/02/15 00:47:45;;;;;;;0.43;0.35;;;;;;;6.96;100.00;96581.78;1026588;28;20641;-67
2024/02/15 00:48:16;;;;;;;0.00;0.00;;;;;;;6.95;100.00;96579.41;1021462;28;20514;-67
2024/02/15 00:48:47;;;;;;;0.22;0.22;;;;;;;6.93;100.00;96578.81;1022826;29;20130;-67
2024/02/15 00:49:20;;;;;;;0.57;0.47;;;;;;;6.92;100.00;96579.81;1025886;28;20592;-67
2024/02/15 00:49:50;;;;;;;1.00;0.52;;;;;;;6.92;100.00;96582.44;1025823;28;20039;-67
2024/02/15 00:50:21;;;;;;;2.78;0.43;;;;;;;6.94;100.00;96583.00;1026609;28;20030;-67
2024/02/15 00:50:51;;;;;;;0.00;0.00;;;;;;;7.00;100.00;96584.75;1026448;28;20333;-67
2024/02/15 00:51:22;;;;;;;1.10;0.85;;;;;;;6.98;100.00;96584.97;1026758;28;20033;-67
2024/02/15 00:51:53;;;;;;;0.20;0.20;;;;;;;6.98;100.00;96586.78;1025242;28;20113;-67
2024/02/15 00:52:23;;;;;;;0.10;0.10;;;;;;;6.94;100.00;96578.59;1026284;28;20026;-67
2024/02/15 00:52:54;;;;;;;0.25;0.15;;;;;;;7.01;100.00;96594.19;1022652;29;20027;-67
2024/02/15 00:53:24;;;;;;;0.45;0.45;;;;;;;7.03;100.00;96589.53;1026337;28;20401;-66
2024/02/15 00:53:58;;;;;;;0.47;0.30;;;;;;;7.04;100.00;96591.09;1030923;28;20594;-67
2024/02/15 00:54:31;;;;;;;0.20;0.20;;;;;;;7.04;100.00;96591.09;1026483;28;20153;-68
2024/02/15 00:55:01;;;;;;;0.90;0.38;;;;;;;7.02;100.00;96591.34;1023427;28;20137;-67
2024/02/15 00:55:32;;;;;;;0.30;0.30;;;;;;;7.03;100.00;96592.13;1026604;28;20035;-67
2024/02/15 00:56:03;;;;;;;0.13;0.13;;;;;;;7.02;100.00;96591.34;1022492;29;20035;-67
2024/02/15 00:56:33;;;;;;;0.47;0.40;;;;;;;7.00;100.00;96587.34;1026521;28;20038;-67
2024/02/15 00:57:04;;;;;;;0.35;0.35;;;;;;;7.00;100.00;96587.34;1023996;28;20070;-67
2024/02/15 00:57:34;;;;;;;0.10;0.10;;;;;;;6.97;100.00;96591.19;1022570;29;20125;-67
2024/02/15 00:58:08;;;;;;;0.45;0.30;;;;;;;6.97;100.00;96593.00;1024604;28;20030;-67
2024/02/15 00:58:39;;;;;;;0.82;0.43;;;;;;;6.94;100.00;96591.66;1029013;28;20136;-67
2024/02/15 00:59:09;;;;;;;0.50;0.50;;;;;;;6.95;100.00;96584.63;1026380;28;20508;-67
2024/02/15 00:59:40;;;;;;;0.25;0.25;;;;;;;6.97;100.00;96591.19;1022267;28;20062;-67
2024/02/15 01:00:11;;;;;;;0.70;0.57;;;;;;;6.94;100.00;96583.81;1020635;29;20031;-67
2024/02/15 01:00:41;;;;;;;0.52;0.52;;;;;;;6.96;100.00;96587.00;1026469;28;20082;-67
2024/02/15 01:01:12;;;;;;;0.10;0.10;;;;;;;6.96;100.00;96586.19;1025352;28;20797;-67
2024/02/15 01:01:43;;;;;;;1.00;0.73;;;;;;;6.99;100.00;96585.75;1026579;28;20046;-67
2024/02/15 01:02:13;;;;;;;0.20;0.20;;;;;;;6.98;100.00;96584.97;1029478;28;20030;-67
2024/02/15 01:02:45;;;;;;;0.10;0.10;;;;;;;6.98;100.00;96584.19;1030233;28;20033;-67
2024/02/15 01:03:16;;;;;;;0.50;0.30;;;;;;;6.99;100.00;96585.75;1029572;28;20480;-67
2024/02/15 01:03:49;;;;;;;0.52;0.52;;;;;;;6.96;100.00;96587.00;1029548;28;20026;-67
2024/02/15 01:04:20;;;;;;;0.10;0.10;;;;;;;6.93;100.00;96581.41;1030301;28;20022;-67
2024/02/15 01:04:52;;;;;;;0.70;0.30;;;;;;;6.91;100.00;96588.66;1022125;28;20031;-67
2024/02/15 01:05:24;;;;;;;0.10;0.10;;;;;;;6.88;100.00;96579.47;1024652;28;20078;-67
2024/02/15 01:05:54;;;;;;;0.17;0.17;;;;;;;6.94;100.00;96581.22;1026377;28;20092;-67
2024/02/15 01:06:25;;;;;;;0.22;0.22;;;;;;;6.92;100.00;96580.63;1023158;28;20589;-66
2024/02/15 01:06:55;;;;;;;0.85;0.75;;;;;;;6.95;100.00;96584.63;1030297;28;20128;-67
2024/02/15 01:07:27;;;;;;;0.68;0.68;;;;;;;6.95;100.00;96576.78;1026445;28;20058;-67
2024/02/15 01:07:58;;;;;;;1.25;0.68;;;;;;;6.97;100.00;96585.19;1022573;28;20023;-67
2024/02/15 01:08:28;;;;;;;0.57;0.57;;;;;;;6.95;100.00;96579.41;1026330;28;20034;-67
2024/02/15 01:09:01;;;;;;;0.00;0.00;;;;;;;6.96;100.00;96586.19;1022114;28;20042;-67
2024/02/15 01:09:31;;;;;;;0.40;0.40;;;;;;;6.93;100.00;96581.41;1033115;28;20615;-66
2024/02/15 01:10:03;;;;;;;0.13;0.13;;;;;;;6.98;100.00;96578.97;1025942;28;20170;-67
2024/02/15 01:10:33;;;;;;;1.15;0.45;;;;;;;7.01;100.00;96581.13;1026454;28;20085;-67
2024/02/15 01:11:04;;;;;;;0.15;0.15;;;;;;;7.02;100.00;96580.91;1024475;28;20162;-67
2024/02/15 01:11:37;;;;;;;0.10;0.10;;;;;;;7.05;100.00;96587.50;1018564;29;20341;-67
2024/02/15 01:12:10;;;;;;;0.30;0.30;;;;;;;7.06;100.00;96581.25;1028568;28;20074;-67
2024/02/15 01:12:40;;;;;;;0.08;0.03;;;;;;;7.05;100.00;96584.91;1032462;28;20034;-67
2024/02/15 01:13:12;;;;;;;0.20;0.20;;;;;;;7.05;100.00;96579.69;1030342;28;20046;-67
2024/02/15 01:13:45;;;;;;;0.17;0.17;;;;;;;7.06;100.00;96582.06;1026297;28;20022;-67
2024/02/15 01:14:15;;;;;;;0.32;0.28;;;;;;;7.07;100.00;96582.84;1023183;28;20122;-67
2024/02/15 01:14:47;;;;;;;0.63;0.40;;;;;;;7.09;100.00;96583.44;1026620;28;20096;-67
2024/02/15 01:15:19;;;;;;;0.20;0.20;;;;;;;7.16;100.00;96584.16;1025704;28;20165;-67
2024/02/15 01:15:50;;;;;;;0.45;0.45;;;;;;;7.18;100.00;96582.13;1022512;29;20031;-67
2024/02/15 01:16:21;;;;;;;0.77;0.50;;;;;;;7.24;100.00;96583.88;1026266;28;20202;-67
2024/02/15 01:16:52;;;;;;;0.20;0.20;;;;;;;7.22;100.00;96585.09;1022455;29;20162;-67
2024/02/15 01:17:22;;;;;;;0.15;0.15;;;;;;;7.10;100.00;96566.75;1029326;28;20026;-67
2024/02/15 01:17:53;;;;;;;0.45;0.40;;;;;;;7.21;100.00;96581.69;1030222;28;20062;-67
2024/02/15 01:18:23;;;;;;;0.05;0.03;;;;;;;7.24;100.00;96581.25;1022433;28;20078;-67
2024/02/15 01:18:54;;;;;;;0.35;0.35;;;;;;;7.25;100.00;96582.03;1027921;28;20026;-67
2024/02/15 01:19:24;;;;;;;0.20;0.20;;;;;;;7.26;100.00;96579.19;1032392;28;20486;-67
2024/02/15 01:19:55;;;;;;;0.68;0.68;;;;;;;7.26;100.00;96576.59;1029800;28;20026;-67
2024/02/15 01:20:26;;;;;;;0.68;0.52;;;;;;;7.25;100.00;96580.22;1026477;28;20030;-67
2024/02/15 01:20:57;;;;;;;0.75;0.40;;;;;;;7.25;100.00;96576.81;1022355;29;20046;-67
2024/02/15 01:21:28;;;;;;;0.10;0.10;;;;;;;7.29;100.00;96586.59;1029422;28;20120;-67
2024/02/15 01:21:59;;;;;;;0.17;0.10;;;;;;;7.31;100.00;96581.97;1019359;28;20027;-67
2024/02/15 01:22:32;;;;;;;0.10;0.10;;;;;;;7.35;100.00;96584.13;1033304;28;20022;-67
2024/02/15 01:23:04;;;;;;;1.63;0.22;;;;;;;7.36;100.00;96580.50;1023895;28;20051;-67
2024/02/15 01:23:36;;;;;;;0.47;0.35;;;;;;;7.38;100.00;96575.84;1022433;29;20027;-67
2024/02/15 01:24:07;;;;;;;0.45;0.40;;;;;;;7.39;100.00;96574.84;1032860;28;20026;-67
2024/02/15 01:24:37;;;;;;;0.50;0.50;;;;;;;7.39;100.00;96574.84;1030579;28;20417;-67
2024/02/15 01:25:08;;;;;;;0.25;0.25;;;;;;;7.42;100.00;96579.63;1028369;28;20043;-67
2024/02/15 01:25:39;;;;;;;4.57;1.00;;;;;;;7.44;100.00;96582.78;1022533;28;20822;-67
2024/02/15 01:26:12;;;;;;;0.43;0.43;;;;;;;7.44;100.00;96578.34;1027749;28;20593;-67
2024/02/15 01:26:43;;;;;;;0.17;0.03;;;;;;;7.46;100.00;96580.75;1025685;28;20035;-67
2024/02/15 01:27:13;;;;;;;0.30;0.30;;;;;;;7.46;100.00;96580.75;1026305;28;20066;-67
2024/02/15 01:27:44;;;;;;;1.23;0.70;;;;;;;7.45;100.00;96573.97;1022305;29;20506;-67
2024/02/15 01:28:14;;;;;;;0.75;0.70;;;;;;;7.47;100.00;96571.91;1032551;28;20510;-67
2024/02/15 01:28:45;;;;;;;0.13;0.13;;;;;;;7.46;100.00;96576.34;1028650;28;20510;-66
2024/02/15 01:29:15;;;;;;;0.17;0.17;;;;;;;7.47;100.00;96571.91;1034381;28;20065;-67
2024/02/15 01:29:46;;;;;;;0.60;0.47;;;;;;;7.47;100.00;96570.09;1025043;28;20503;-67
2024/02/15 01:30:16;;;;;;;0.60;0.45;;;;;;;7.50;100.00;96568.84;1028647;28;20022;-67
2024/02/15 01:30:47;;;;;;;0.47;0.10;;;;;;;7.50;100.00;96567.03;1028628;28;20030;-67
2024/02/15 01:31:17;;;;;;;0.20;0.17;;;;;;;7.49;100.00;96562.84;1022626;29;20031;-67
2024/02/15 01:31:48;;;;;;;0.20;0.20;;;;;;;7.49;100.00;96564.66;1018310;29;20027;-67
2024/02/15 01:32:19;;;;;;;1.55;0.43;;;;;;;7.49;100.00;96564.66;1026030;28;20588;-67
2024/02/15 01:32:50;;;;;;;0.20;0.20;;;;;;;7.51;100.00;96568.66;1027759;28;20065;-67
2024/02/15 01:33:20;;;;;;;0.65;0.40;;;;;;;7.49;100.00;96569.88;1030077;28;20437;-67
2024/02/15 01:33:51;;;;;;;0.08;0.08;;;;;;;7.50;100.00;96568.84;1028265;28;20081;-67
2024/02/15 01:34:21;;;;;;;0.20;0.20;;;;;;;7.47;100.00;96561.47;1022298;29;20081;-67
2024/02/15 01:34:54;;;;;;;0.35;0.10;;;;;;;7.48;100.00;96563.06;1022353;29;20503;-67
2024/02/15 01:35:25;;;;;;;0.30;0.30;;;;;;;7.45;100.00;96559.09;1026421;28;20138;-67
2024/02/15 01:35:56;;;;;;;0.03;0.03;;;;;;;7.45;100.00;96556.47;1022336;28;20035;-67
2024/02/15 01:36:26;;;;;;;1.45;0.75;;;;;;;7.47;100.00;96553.63;1022508;29;20456;-67
2024/02/15 01:36:57;;;;;;;0.40;0.32;;;;;;;7.47;100.00;96557.03;1026344;28;20026;-67
2024/02/15 01:37:27;;;;;;;0.47;0.47;;;;;;;7.48;100.00;96558.66;1026268;28;20030;-67
2024/02/15 01:37:58;;;;;;;0.00;0.00;;;;;;;7.48;100.00;96550.00;1022389;29;20444;-67
2024/02/15 01:38:28;;;;;;;0.35;0.30;;;;;;;7.50;100.00;96551.38;1019283;29;20070;-67
2024/02/15 01:38:59;;;;;;;0.40;0.40;;;;;;;7.51;100.00;96558.19;1027276;28;20483;-67
2024/02/15 01:39:29;;;;;;;0.13;0.13;;;;;;;7.51;100.00;96557.38;1023258;29;20039;-67
2024/02/15 01:40:00;;;;;;;2.03;0.55;;;;;;;7.53;100.00;96556.16;1026533;28;20117;-67
2024/02/15 01:40:35;;;;;;;0.10;0.10;;;;;;;7.53;100.00;96555.34;1031305;28;20038;-67
2024/02/15 01:41:08;;;;;;;3.10;0.90;;;;;;;7.52;100.00;96557.16;1026939;28;20658;-67
2024/02/15 01:41:38;;;;;;;0.25;0.15;;;;;;;7.53;100.00;96555.34;1027303;28;20059;-67
2024/02/15 01:42:09;;;;;;;0.38;0.38;;;;;;;7.52;100.00;96553.78;1027137;28;20527;-67
2024/02/15 01:42:39;;;;;;;0.28;0.28;;;;;;;7.50;100.00;96556.59;1031046;28;20042;-67
2024/02/15 01:43:10;;;;;;;0.25;0.25;;;;;;;7.52;100.00;96553.78;1029598;28;20065;-67
2024/02/15 01:43:45;;;;;;;0.20;0.20;;;;;;;7.51;100.00;96557.38;1030863;28;20065;-67
2024/02/15 01:44:15;;;;;;;0.63;0.63;;;;;;;7.51;100.00;96560.00;1030934;28;20030;-67
2024/02/15 01:44:47;;;;;;;0.20;0.20;;;;;;;7.50;100.00;96561.03;1027341;28;20486;-67
2024/02/15 01:45:18;;;;;;;0.65;0.32;;;;;;;7.50;100.00;96561.03;1023205;29;20036;-67
2024/02/15 01:45:48;;;;;;;0.00;0.00;;;;;;;7.52;100.00;96566.81;1031149;28;20023;-67
2024/02/15 01:46:19;;;;;;;0.15;0.15;;;;;;;7.52;100.00;96559.78;1031167;28;20048;-67
2024/02/15 01:46:49;;;;;;;0.25;0.25;;;;;;;7.51;100.00;96560.81;1027237;28;20110;-67
2024/02/15 01:47:20;;;;;;;0.10;0.10;;;;;;;7.53;100.00;96560.56;1031013;28;20022;-67
2024/02/15 01:47:51;;;;;;;1.30;0.45;;;;;;;7.52;100.00;96556.38;1031228;28;20296;-67
2024/02/15 01:48:22;;;;;;;0.38;0.35;;;;;;;7.52;100.00;96559.00;1030149;28;20023;-67
2024/02/15 01:48:52;;;;;;;1.23;0.30;;;;;;;7.46;100.00;96550.22;1027268;28;20525;-67
2024/02/15 01:49:23;;;;;;;0.10;0.10;;;;;;;7.51;100.00;96560.81;1023256;29;20234;-68
2024/02/15 01:49:54;;;;;;;0.20;0.20;;;;;;;7.48;100.00;96558.66;1031203;28;20025;-66
2024/02/15 01:50:24;;;;;;;0.43;0.43;;;;;;;7.49;100.00;96554.22;1035169;28;20026;-65
2024/02/15 01:50:58;;;;;;;0.08;0.08;;;;;;;7.47;100.00;96554.41;1031177;28;20189;-67
2024/02/15 01:51:29;;;;;;;0.20;0.20;;;;;;;7.49;100.00;96554.22;1031111;28;20125;-67
2024/02/15 01:52:02;;;;;;;2.50;0.20;;;;;;;7.47;100.00;96551.00;1031123;28;20354;-67
2024/02/15 01:52:33;;;;;;;0.68;0.38;;;;;;;7.46;100.00;96557.25;1026813;28;20015;-67
2024/02/15 01:53:04;;;;;;;0.40;0.40;;;;;;;7.42;100.00;96553.50;1029127;28;20058;-67
2024/02/15 01:53:35;;;;;;;0.20;0.20;;;;;;;7.41;100.00;96546.69;1031191;28;20019;-67
2024/02/15 01:54:05;;;;;;;0.08;0.08;;;;;;;7.39;100.00;96549.53;1035252;28;20022;-66
2024/02/15 01:54:38;;;;;;;0.60;0.40;;;;;;;7.37;100.00;96555.97;1031062;28;20093;-67
2024/02/15 01:55:09;;;;;;;1.70;0.52;;;;;;;7.36;100.00;96557.78;1023047;28;20025;-67
2024/02/15 01:55:39;;;;;;;0.32;0.32;;;;;;;7.33;100.00;96551.19;1023328;29;20050;-67
2024/02/15 01:56:12;;;;;;;4.68;1.75;;;;;;;7.32;100.00;96554.84;1020169;28;20376;-67
2024/02/15 01:56:43;;;;;;;0.05;0.05;;;;;;;7.32;100.00;96549.59;1027061;28;20557;-67
2024/02/15 01:57:14;;;;;;;0.25;0.25;;;;;;;7.32;100.00;96554.03;1023167;29;20033;-67
2024/02/15 01:57:50;;;;;;;0.28;0.28;;;;;;;7.26;100.00;96544.47;1027012;28;20061;-66
2024/02/15 01:58:20;;;;;;;0.17;0.15;;;;;;;7.28;100.00;96553.69;1034736;28;20073;-67
2024/02/15 01:58:51;;;;;;;0.52;0.28;;;;;;;7.27;100.00;96554.69;1026996;28;20030;-67
2024/02/15 01:59:22;;;;;;;0.98;0.45;;;;;;;7.26;100.00;96550.50;1026907;28;20116;-67
2024/02/15 01:59:53;;;;;;;0.32;0.32;;;;;;;7.25;100.00;96548.91;1026735;28;20089;-67
2024/02/15 02:00:24;;;;;;;0.10;0.10;;;;;;;7.22;100.00;96559.78;1022325;29;20038;-67
2024/02/15 02:00:54;;;;;;;1.88;0.47;;;;;;;7.24;100.00;96560.38;1030989;28;20045;-67
2024/02/15 02:01:25;;;;;;;0.77;0.52;;;;;;;7.21;100.00;96558.19;1031181;28;20022;-66
2024/02/15 02:01:55;;;;;;;0.25;0.25;;;;;;;7.21;100.00;96555.59;1027105;28;20018;-67
2024/02/15 02:02:26;;;;;;;0.70;0.22;;;;;;;7.19;100.00;96557.63;1027217;28;20045;-67
2024/02/15 02:03:01;;;;;;;0.45;0.45;;;;;;;7.19;100.00;96560.22;1026982;28;20046;-67
2024/02/15 02:03:34;;;;;;;1.80;0.28;;;;;;;7.17;100.00;96557.03;1024000;28;20102;-67
2024/02/15 02:04:04;;;;;;;0.40;0.40;;;;;;;7.18;100.00;96563.84;1020646;29;20169;-66
2024/02/15 02:04:35;;;;;;;0.40;0.40;;;;;;;7.19;100.00;96560.22;1027420;28;20067;-67
2024/02/15 02:05:06;;;;;;;0.20;0.20;;;;;;;7.17;100.00;96554.41;1023003;28;20142;-67
2024/02/15 02:05:36;;;;;;;0.20;0.20;;;;;;;7.20;100.00;96556.59;1023103;28;20022;-67
2024/02/15 02:06:07;;;;;;;0.65;0.25;;;;;;;7.22;100.00;96559.00;1022938;29;20139;-67
2024/02/15 02:06:38;;;;;;;0.28;0.20;;;;;;;7.19;100.00;96555.00;1023360;29;20015;-67
2024/02/15 02:07:08;;;;;;;0.03;0.00;;;;;;;7.19;100.00;96560.22;1025457;28;20042;-67
2024/02/15 02:07:39;;;;;;;0.60;0.60;;;;;;;7.21;100.00;96563.41;1022428;29;20023;-67
2024/02/15 02:08:09;;;;;;;0.90;0.60;;;;;;;7.26;100.00;96558.31;1025214;28;20333;-67
2024/02/15 02:08:40;;;;;;;0.20;0.15;;;;;;;7.26;100.00;96554.91;1028375;28;20193;-67
2024/02/15 02:09:14;;;;;;;0.30;0.13;;;;;;;7.27;100.00;96565.13;1021545;29;20027;-68
2024/02/15 02:09:46;;;;;;;4.88;0.85;;;;;;;7.29;100.00;96562.31;1026584;28;20118;-66
2024/02/15 02:10:18;;;;;;;0.05;0.05;;;;;;;7.32;100.00;96564.47;1030978;28;20067;-67
2024/02/15 02:10:50;;;;;;;2.60;1.45;;;;;;;7.38;100.00;96558.38;1024225;28;20019;-67
2024/02/15 02:11:20;;;;;;;0.35;0.35;;;;;;;7.40;100.00;96560.75;1030972;28;20078;-67
2024/02/15 02:11:51;;;;;;;0.43;0.43;;;;;;;7.42;100.00;96553.50;1027294;28;20109;-67
2024/02/15 02:12:22;;;;;;;0.57;0.57;;;;;;;7.44;100.00;96554.06;1031890;28;20556;-67
2024/02/15 02:12:53;;;;;;;0.38;0.25;;;;;;;7.46;100.00;96554.66;1027134;28;20035;-66
2024/02/15 02:13:23;;;;;;;0.47;0.45;;;;;;;7.46;100.00;96552.03;1023354;29;20066;-67
2024/02/15 02:13:54;;;;;;;0.50;0.50;;;;;;;7.46;100.00;96549.44;1026878;28;20037;-67
2024/02/15 02:14:24;;;;;;;0.10;0.10;;;;;;;7.45;100.00;96551.25;1023112;28;20054;-66
2024/02/15 02:14:55;;;;;;;1.35;0.70;;;;;;;7.45;100.00;96548.63;1023663;28;20031;-67
2024/02/15 02:15:25;;;;;;;0.30;0.17;;;;;;;7.49;100.00;96546.38;1024265;28;20066;-66
2024/02/15 02:15:56;;;;;;;1.95;0.80;;;;;;;7.50;100.00;96545.34;1027382;28;20106;-67
2024/02/15 02:16:32;;;;;;;0.30;0.30;;;;;;;7.47;100.00;96541.34;1027057;28;20042;-67
2024/02/15 02:17:14;;;;;;;0.70;0.57;;;;;;;7.53;100.00;96543.09;1032597;28;20030;-67
2024/02/15 02:17:51;;;;;;;0.40;0.40;;;;;;;7.54;100.00;96543.88;1031083;28;20038;-66
2024/02/15 02:18:21;;;;;;;0.93;0.50;;;;;;;7.54;100.00;96544.69;1026786;28;20022;-66
2024/02/15 02:18:52;;;;;;;0.50;0.50;;;;;;;7.55;100.00;96538.44;1023064;28;20047;-67
2024/02/15 02:19:22;;;;;;;0.10;0.10;;;;;;;7.56;100.00;96541.84;1023146;29;20226;-67
2024/02/15 02:19:57;;;;;;;0.17;0.17;;;;;;;7.55;100.00;96543.66;1030342;28;20129;-67
2024/02/15 02:20:27;;;;;;;0.17;0.17;;;;;;;7.56;100.00;96534.81;1026666;28;20509;-67
2024/02/15 02:20:58;;;;;;;0.45;0.32;;;;;;;7.55;100.00;96537.66;1027712;28;20027;-67
2024/02/15 02:21:28;;;;;;;0.30;0.30;;;;;;;7.54;100.00;96536.03;1023071;28;20090;-67
2024/02/15 02:22:01;;;;;;;0.10;0.10;;;;;;;7.44;100.00;96522.72;1028999;28;20192;-67
2024/02/15 02:22:32;;;;;;;0.08;0.08;;;;;;;7.55;100.00;96540.28;1026180;28;20022;-67
2024/02/15 02:23:22;;;;;;;0.00;0.00;;;;;;;7.52;100.00;96540.72;1023865;28;20147;-67
2024/02/15 02:23:55;;;;;;;1.88;0.50;;;;;;;7.50;100.00;96533.09;1027714;28;20018;-67
2024/02/15 02:24:26;;;;;;;0.20;0.20;;;;;;;7.46;100.00;96528.53;1035451;28;20037;-67
2024/02/15 02:25:08;;;;;;;0.08;0.08;;;;;;;7.52;100.00;96538.09;1027830;28;20137;-67
2024/02/15 02:25:38;;;;;;;0.75;0.57;;;;;;;7.49;100.00;96533.31;1027274;28;20023;-67
2024/02/15 02:26:09;;;;;;;2.40;0.35;;;;;;;7.49;100.00;96533.31;1029357;28;20042;-67
2024/02/15 02:26:40;;;;;;;0.65;0.50;;;;;;;7.45;100.00;96526.97;1023512;29;20031;-67
2024/02/15 02:27:10;;;;;;;0.30;0.30;;;;;;;7.46;100.00;96529.34;1033089;28;20018;-66